首页
METAR-TAF:

METAR-TAF

机场 :

Latrobe, 宾夕法尼亚州, 美国

纬度: 40-17N, 经度: 079-24W, 海拔: 361米

当前天气观测

该预报发布于12分钟前的08:15 UTC
静风
温度 0°C
湿度 51%
气压 1025 hPa
能見度: 16.1公里
天空无云

METAR: KLBE 130815Z AUTO 00000KT 10SM CLR 00/M09 A3027 RMK AO2

时间: 03:27 (08:27 UTC)

预报

该预报发布于2小时和48分钟前的05:39 UTC
预报有效从13日的 06点(UTC)到 14日的 06点(UTC)
风速5节,风向东转东南,有时为12节阵风
能見度: 10公里
阴天层高于22000英尺
从 13日的 1800点(UTC)
风速6节,风向东南
能見度: 10公里
阴天层高于2500英尺
附近有阵雨
从 14日的 0100点(UTC)
风速5节,风向东转东南
能見度: 4.8公里
阴天层高于1500英尺
小雨, 轻雾
从 14日的 0300点(UTC)
风速5节,风向东转东南
能見度: 1.6公里
阴天层高于800英尺
小雨, 轻雾

TAF: KLBE 130539Z 1306/1406 12005G12KT P6SM OVC220 FM131800 14006KT P6SM VCSH OVC025 FM140100 12005KT 3SM -RA BR OVC015 FM140300 12005KT 1SM -RA BR OVC008

超过4000个机场的气象观测和天气预报(METAR&TAF报告)。

可查询的气象台以黄色和红色小点在地图上表示。

将鼠标移到小点上方,可查看气象台名称。

然后点击查看天气观测和预报。

如需切换地图:点击带黑十字的绿色按钮放大地图;点击带横线的绿色按钮缩小地图;或者点击绿色箭头查看邻近地区的地图。


METAR-TAF: